Time;durP1;ratioP1;P1;durP2;ratioP2;P2;SDS_P1;SDS_P2;PMS_P1;PMS_P2;Temp;Humidity;BMP_temperature;BMP_pressure;BME280_temperature;BME280_humidity;BME280_pressure;Samples;Min_cycle;Max_cycle;Signal;HPM_P1;HPM_P2
2023/02/26 00:01:40;;;;;;;4.30;3.50;;;;;;;;;;105316;1252;61776;-66
2023/02/26 00:04:09;;;;;;;4.00;3.60;;;;;;;;;;105420;1260;61712;-66
2023/02/26 00:06:38;;;;;;;4.80;3.80;;;;;;;;;;104776;1256;61699;-66
2023/02/26 00:09:07;;;;;;;4.00;3.70;;;;;;;;;;105197;1249;61991;-66
2023/02/26 00:11:36;;;;;;;4.00;3.60;;;;;;;;;;105239;1253;61683;-65
2023/02/26 00:14:05;;;;;;;3.90;3.50;;;;;;;;;;105414;1253;61547;-66
2023/02/26 00:16:35;;;;;;;4.00;3.70;;;;;;;;;;105375;1252;61600;-66
2023/02/26 00:19:04;;;;;;;4.00;3.50;;;;;;;;;;105388;1247;61785;-68
2023/02/26 00:21:33;;;;;;;4.10;3.70;;;;;;;;;;105205;1269;61641;-67
2023/02/26 00:24:02;;;;;;;4.30;3.50;;;;;;;;;;105288;1248;61586;-68
2023/02/26 00:26:31;;;;;;;3.60;3.30;;;;;;;;;;105262;1248;61685;-67
2023/02/26 00:29:00;;;;;;;5.50;3.50;;;;;;;;;;105287;1253;61656;-68
2023/02/26 00:31:29;;;;;;;3.90;3.60;;;;;;;;;;105259;1249;61611;-68
2023/02/26 00:33:57;;;;;;;4.00;3.60;;;;;;;;;;105322;1260;61705;-68
2023/02/26 00:36:41;;;;;;;3.80;3.20;;;;;;;;;;105270;1262;60959;-68
2023/02/26 00:39:09;;;;;;;3.50;3.00;;;;;;;;;;105302;1253;61620;-68
2023/02/26 00:41:38;;;;;;;3.60;3.30;;;;;;;;;;105242;1251;61681;-68
2023/02/26 00:44:07;;;;;;;3.70;3.00;;;;;;;;;;105285;1253;61577;-68
2023/02/26 00:46:47;;;;;;;3.50;3.20;;;;;;;;;;105239;1248;61614;-68
2023/02/26 00:49:15;;;;;;;3.90;3.60;;;;;;;;;;105374;1258;61736;-68
2023/02/26 00:51:48;;;;;;;3.80;3.40;;;;;;;;;;105256;1252;61718;-68
2023/02/26 00:54:23;;;;;;;3.80;3.50;;;;;;;;;;105379;1259;61772;-68
2023/02/26 00:56:52;;;;;;;3.80;3.40;;;;;;;;;;105383;1252;61694;-67
2023/02/26 00:59:20;;;;;;;4.00;3.40;;;;;;;;;;105271;1253;61586;-68
2023/02/26 01:01:49;;;;;;;5.60;4.10;;;;;;;;;;105201;1248;61103;-67
2023/02/26 01:04:18;;;;;;;3.70;3.40;;;;;;;;;;105289;1248;61635;-68
2023/02/26 01:06:48;;;;;;;3.60;3.10;;;;;;;;;;105268;1250;61691;-68
2023/02/26 01:09:24;;;;;;;3.50;3.20;;;;;;;;;;105298;1251;61679;-68
2023/02/26 01:11:53;;;;;;;3.50;3.20;;;;;;;;;;105221;1249;62034;-69
2023/02/26 01:14:22;;;;;;;3.60;3.30;;;;;;;;;;105204;1250;61693;-68
2023/02/26 01:16:54;;;;;;;3.20;2.90;;;;;;;;;;105287;1253;61516;-68
2023/02/26 01:19:22;;;;;;;3.60;3.00;;;;;;;;;;105227;1252;61714;-68
2023/02/26 01:21:53;;;;;;;3.20;2.70;;;;;;;;;;105265;1252;61597;-68
2023/02/26 01:24:21;;;;;;;3.00;2.70;;;;;;;;;;105066;1258;61599;-68
2023/02/26 01:26:49;;;;;;;3.30;2.70;;;;;;;;;;105275;1250;61787;-68
2023/02/26 01:29:18;;;;;;;3.00;2.70;;;;;;;;;;105261;1254;61589;-68
2023/02/26 01:31:49;;;;;;;3.50;2.50;;;;;;;;;;104984;1254;61650;-68
2023/02/26 01:34:40;;;;;;;3.50;3.20;;;;;;;;;;105294;1252;61700;-68
2023/02/26 01:37:16;;;;;;;3.30;2.70;;;;;;;;;;105051;1256;61683;-68
2023/02/26 01:39:46;;;;;;;;;;;;;;;;;;104948;1253;61693;-69
2023/02/26 01:42:16;;;;;;;3.20;2.90;;;;;;;;;;105228;1252;61701;-70
2023/02/26 01:44:57;;;;;;;3.50;3.20;;;;;;;;;;104655;1248;61574;-70
2023/02/26 01:47:26;;;;;;;3.60;3.30;;;;;;;;;;105396;1249;61659;-70
2023/02/26 01:49:54;;;;;;;3.10;2.80;;;;;;;;;;105365;1259;61608;-72
2023/02/26 01:52:31;;;;;;;2.60;2.40;;;;;;;;;;105286;1259;62536;-68
2023/02/26 01:55:01;;;;;;;3.00;2.80;;;;;;;;;;105358;1260;61083;-69
2023/02/26 01:57:29;;;;;;;3.00;2.70;;;;;;;;;;105258;1255;61586;-69
2023/02/26 01:59:57;;;;;;;3.10;2.80;;;;;;;;;;105357;1249;61696;-68
2023/02/26 02:02:26;;;;;;;2.40;2.20;;;;;;;;;;104887;1253;60668;-68
2023/02/26 02:04:54;;;;;;;2.30;2.10;;;;;;;;;;105243;1257;61603;-68
2023/02/26 02:07:23;;;;;;;3.00;2.70;;;;;;;;;;105703;1252;61695;-72
2023/02/26 02:09:52;;;;;;;3.70;2.80;;;;;;;;;;104965;1247;61744;-71
2023/02/26 02:12:30;;;;;;;2.60;2.40;;;;;;;;;;105329;1256;61695;-71
2023/02/26 02:15:03;;;;;;;2.80;2.60;;;;;;;;;;105533;1254;61710;-71
2023/02/26 02:17:40;;;;;;;2.90;2.60;;;;;;;;;;105307;1252;61679;-72
2023/02/26 02:20:11;;;;;;;2.50;2.30;;;;;;;;;;106394;1252;61726;-73
2023/02/26 02:22:58;;;;;;;3.40;2.80;;;;;;;;;;106172;1248;61592;-73
2023/02/26 02:25:27;;;;;;;3.40;2.50;;;;;;;;;;105582;1248;61637;-73
2023/02/26 02:28:12;;;;;;;2.30;2.10;;;;;;;;;;105634;1254;61692;-73
2023/02/26 02:31:01;;;;;;;2.30;2.10;;;;;;;;;;105330;1252;61686;-73
2023/02/26 02:33:30;;;;;;;2.70;2.50;;;;;;;;;;105342;1253;61579;-72
2023/02/26 02:36:00;;;;;;;2.90;2.50;;;;;;;;;;105246;1256;61682;-73
2023/02/26 02:38:34;;;;;;;2.70;2.50;;;;;;;;;;105439;1261;61644;-72
2023/02/26 02:41:11;;;;;;;2.70;2.50;;;;;;;;;;104818;1255;61994;-72
2023/02/26 02:43:40;;;;;;;2.70;2.50;;;;;;;;;;105489;1249;61679;-73
2023/02/26 02:46:09;;;;;;;3.20;2.90;;;;;;;;;;105136;1255;61715;-72
2023/02/26 02:48:38;;;;;;;3.20;2.80;;;;;;;;;;105422;1252;61905;-73
2023/02/26 02:51:11;;;;;;;2.50;2.30;;;;;;;;;;105595;1252;61678;-72
2023/02/26 02:53:43;;;;;;;3.20;2.80;;;;;;;;;;105322;1267;61664;-72
2023/02/26 02:56:22;;;;;;;2.60;2.40;;;;;;;;;;105445;1251;61059;-73
2023/02/26 02:58:57;;;;;;;2.90;2.60;;;;;;;;;;105586;1254;61614;-73
2023/02/26 03:01:26;;;;;;;3.60;2.60;;;;;;;;;;105385;1254;61694;-73
2023/02/26 03:04:08;;;;;;;2.50;2.30;;;;;;;;;;105300;1265;61683;-73
2023/02/26 03:06:37;;;;;;;2.40;2.20;;;;;;;;;;104986;1253;61722;-73
2023/02/26 03:09:05;;;;;;;2.70;2.40;;;;;;;;;;104829;1264;61697;-72
2023/02/26 03:11:35;;;;;;;2.70;2.50;;;;;;;;;;105366;1253;61566;-72
2023/02/26 03:14:05;;;;;;;2.80;2.60;;;;;;;;;;105371;1261;61588;-72
2023/02/26 03:16:47;;;;;;;2.40;2.10;;;;;;;;;;105380;1264;61695;-72
2023/02/26 03:19:17;;;;;;;2.70;2.40;;;;;;;;;;104927;1253;61672;-72
2023/02/26 03:21:53;;;;;;;2.50;2.30;;;;;;;;;;105059;1251;61765;-72
2023/02/26 03:24:47;;;;;;;2.60;2.40;;;;;;;;;;104891;1262;61620;-72
2023/02/26 03:27:20;;;;;;;3.40;2.60;;;;;;;;;;105354;1268;60816;-72
2023/02/26 03:29:56;;;;;;;3.70;2.60;;;;;;;;;;105059;1259;61740;-72
2023/02/26 03:32:36;;;;;;;5.20;3.10;;;;;;;;;;105017;1251;61689;-73
2023/02/26 03:35:15;;;;;;;3.00;2.70;;;;;;;;;;104900;1263;61682;-73
2023/02/26 03:37:44;;;;;;;2.60;2.40;;;;;;;;;;104979;1255;61724;-73
2023/02/26 03:40:16;;;;;;;3.20;2.90;;;;;;;;;;104827;1257;61039;-73
2023/02/26 03:42:52;;;;;;;3.30;3.00;;;;;;;;;;105423;1253;61680;-73
2023/02/26 03:45:25;;;;;;;3.00;2.70;;;;;;;;;;104875;1251;61621;-72
2023/02/26 03:47:54;;;;;;;4.00;3.50;;;;;;;;;;105278;1255;61666;-72
2023/02/26 03:50:43;;;;;;;4.50;3.10;;;;;;;;;;104867;1253;61737;-71
2023/02/26 03:53:33;;;;;;;3.70;3.30;;;;;;;;;;105000;1264;61686;-72
2023/02/26 03:56:16;;;;;;;3.70;3.30;;;;;;;;;;104849;1264;61670;-72
2023/02/26 03:59:03;;;;;;;3.70;3.40;;;;;;;;;;105196;1251;61710;-72
2023/02/26 04:03:27;;;;;;;3.50;3.20;;;;;;;;;;101996;1293;600942;-71
2023/02/26 04:05:55;;;;;;;3.50;3.20;;;;;;;;;;104281;1264;60330;-72
2023/02/26 04:08:24;;;;;;;3.50;3.10;;;;;;;;;;104754;1250;60256;-70
2023/02/26 04:10:57;;;;;;;3.40;3.10;;;;;;;;;;104627;1258;60310;-69
2023/02/26 04:13:27;;;;;;;3.70;2.90;;;;;;;;;;105030;1252;60218;-69
2023/02/26 04:15:55;;;;;;;3.20;2.90;;;;;;;;;;104631;1257;197279;-71
2023/02/26 04:18:23;;;;;;;3.30;3.00;;;;;;;;;;105306;1253;60248;-71
2023/02/26 04:20:52;;;;;;;4.00;3.50;;;;;;;;;;105301;1250;60299;-71
2023/02/26 04:23:20;;;;;;;4.00;3.30;;;;;;;;;;104952;1250;60143;-70
2023/02/26 04:25:49;;;;;;;4.50;3.60;;;;;;;;;;105255;1250;60208;-71
2023/02/26 04:28:18;;;;;;;5.00;3.50;;;;;;;;;;105029;1254;60863;-71
2023/02/26 04:30:47;;;;;;;3.20;2.90;;;;;;;;;;105275;1254;60898;-72
2023/02/26 04:33:16;;;;;;;3.00;2.70;;;;;;;;;;105233;1247;60775;-72
2023/02/26 04:35:44;;;;;;;3.40;3.10;;;;;;;;;;105306;1257;60783;-73
2023/02/26 04:38:13;;;;;;;3.20;2.90;;;;;;;;;;105211;1254;60850;-71
2023/02/26 04:40:41;;;;;;;3.70;3.20;;;;;;;;;;107090;1247;61282;-73
2023/02/26 04:43:11;;;;;;;3.00;2.70;;;;;;;;;;109038;1247;59007;-73
2023/02/26 04:45:46;;;;;;;2.80;2.60;;;;;;;;;;108984;1248;59342;-73
2023/02/26 04:48:16;;;;;;;2.90;2.70;;;;;;;;;;106717;1247;60798;-73
2023/02/26 04:50:47;;;;;;;3.40;3.10;;;;;;;;;;105595;1254;60785;-73
2023/02/26 04:53:15;;;;;;;2.60;2.40;;;;;;;;;;105183;1254;60794;-72
2023/02/26 04:55:43;;;;;;;3.30;3.00;;;;;;;;;;105173;1254;60782;-73
2023/02/26 04:58:14;;;;;;;3.70;3.20;;;;;;;;;;105351;1251;60859;-70
2023/02/26 05:00:46;;;;;;;3.10;2.80;;;;;;;;;;105228;1248;60943;-73
2023/02/26 05:03:15;;;;;;;3.60;3.10;;;;;;;;;;105069;1254;60869;-73
2023/02/26 05:05:45;;;;;;;4.70;2.80;;;;;;;;;;104938;1253;60930;-74
2023/02/26 05:08:13;;;;;;;3.10;2.80;;;;;;;;;;104934;1254;60903;-74
2023/02/26 05:10:42;;;;;;;3.40;2.90;;;;;;;;;;104971;1254;60690;-74
2023/02/26 05:13:11;;;;;;;4.20;3.40;;;;;;;;;;104965;1251;60870;-74
2023/02/26 05:15:39;;;;;;;4.10;3.40;;;;;;;;;;104797;1254;60772;-75
2023/02/26 05:18:07;;;;;;;2.80;2.60;;;;;;;;;;104871;1251;60832;-74
2023/02/26 05:20:36;;;;;;;3.70;3.10;;;;;;;;;;104998;1255;61356;-74
2023/02/26 05:23:05;;;;;;;3.40;3.10;;;;;;;;;;104804;1256;60869;-74
2023/02/26 05:25:34;;;;;;;3.50;2.90;;;;;;;;;;104804;1272;60366;-75
2023/02/26 05:28:03;;;;;;;4.80;3.10;;;;;;;;;;104826;1253;60788;-74
2023/02/26 05:30:31;;;;;;;3.50;3.20;;;;;;;;;;104856;1250;61047;-73
2023/02/26 05:33:00;;;;;;;3.60;3.30;;;;;;;;;;104801;1251;60892;-74
2023/02/26 05:35:28;;;;;;;3.40;3.10;;;;;;;;;;104809;1257;60766;-74
2023/02/26 05:37:56;;;;;;;3.50;3.20;;;;;;;;;;104789;1251;60763;-73
2023/02/26 05:40:24;;;;;;;5.00;3.60;;;;;;;;;;104782;1251;60883;-69
2023/02/26 05:42:52;;;;;;;3.40;3.00;;;;;;;;;;104773;1251;60892;-70
2023/02/26 05:45:21;;;;;;;3.90;3.50;;;;;;;;;;104685;1254;60862;-70
2023/02/26 05:47:49;;;;;;;4.80;3.40;;;;;;;;;;104657;1251;61029;-70
2023/02/26 05:50:17;;;;;;;3.80;3.50;;;;;;;;;;104732;1254;60764;-70
2023/02/26 05:52:46;;;;;;;4.20;3.50;;;;;;;;;;104668;1254;60879;-70
2023/02/26 05:55:16;;;;;;;3.40;3.10;;;;;;;;;;104892;1254;60904;-70
2023/02/26 05:57:44;;;;;;;4.10;3.70;;;;;;;;;;104768;1250;60883;-70
2023/02/26 06:00:13;;;;;;;4.10;3.10;;;;;;;;;;104938;1250;60801;-70
2023/02/26 06:02:41;;;;;;;4.20;3.80;;;;;;;;;;104796;1252;60873;-70
2023/02/26 06:05:10;;;;;;;4.60;3.50;;;;;;;;;;105312;1255;60875;-69
2023/02/26 06:07:39;;;;;;;3.80;3.50;;;;;;;;;;105114;1251;60870;-69
2023/02/26 06:10:08;;;;;;;4.00;3.60;;;;;;;;;;105275;1253;60863;-69
2023/02/26 06:12:39;;;;;;;3.50;3.20;;;;;;;;;;105098;1249;60870;-69
2023/02/26 06:15:08;;;;;;;3.30;3.10;;;;;;;;;;105003;1250;60928;-69
2023/02/26 06:17:37;;;;;;;3.40;3.10;;;;;;;;;;105044;1251;60885;-69
2023/02/26 06:20:09;;;;;;;3.60;3.30;;;;;;;;;;105054;1253;60936;-69
2023/02/26 06:22:38;;;;;;;3.60;3.10;;;;;;;;;;107932;1249;60283;-65
2023/02/26 06:25:06;;;;;;;4.10;3.50;;;;;;;;;;105377;1250;60921;-66
2023/02/26 06:27:35;;;;;;;5.40;3.70;;;;;;;;;;105252;1253;60792;-67
2023/02/26 06:30:04;;;;;;;5.10;3.70;;;;;;;;;;105102;1253;60730;-68
2023/02/26 06:32:32;;;;;;;5.90;3.80;;;;;;;;;;105022;1253;60906;-63
2023/02/26 06:35:01;;;;;;;4.50;4.00;;;;;;;;;;105186;1253;60934;-68
2023/02/26 06:37:32;;;;;;;4.30;3.90;;;;;;;;;;105206;1250;60891;-65
2023/02/26 06:40:01;;;;;;;4.50;4.00;;;;;;;;;;105348;1253;60879;-66
2023/02/26 06:42:30;;;;;;;4.60;4.20;;;;;;;;;;104950;1250;60908;-63
2023/02/26 06:44:59;;;;;;;4.90;4.40;;;;;;;;;;105031;1251;60901;-65
2023/02/26 06:47:27;;;;;;;5.00;4.40;;;;;;;;;;105425;1253;60742;-67
2023/02/26 06:49:56;;;;;;;4.20;3.80;;;;;;;;;;105505;1250;60896;-65
2023/02/26 06:52:24;;;;;;;4.10;3.60;;;;;;;;;;105443;1250;60764;-70
2023/02/26 06:54:53;;;;;;;5.20;4.20;;;;;;;;;;105242;1249;60802;-65
2023/02/26 06:57:21;;;;;;;5.30;4.50;;;;;;;;;;105426;1250;60764;-66
2023/02/26 06:59:50;;;;;;;5.10;4.30;;;;;;;;;;105084;1265;60280;-67
2023/02/26 07:02:19;;;;;;;5.10;4.60;;;;;;;;;;105043;1263;61100;-65
2023/02/26 07:04:47;;;;;;;4.40;4.00;;;;;;;;;;105210;1249;60863;-66
2023/02/26 07:07:16;;;;;;;4.50;4.10;;;;;;;;;;104837;1253;60753;-64
2023/02/26 07:09:44;;;;;;;5.50;4.50;;;;;;;;;;105176;1251;60867;-65
2023/02/26 07:12:13;;;;;;;4.70;4.20;;;;;;;;;;105064;1250;60885;-65
2023/02/26 07:14:43;;;;;;;5.00;4.50;;;;;;;;;;105200;1250;60792;-68
2023/02/26 07:17:19;;;;;;;5.70;4.40;;;;;;;;;;104947;1250;60787;-66
2023/02/26 07:19:48;;;;;;;8.90;5.00;;;;;;;;;;105081;1250;61269;-63
2023/02/26 07:22:16;;;;;;;5.40;4.80;;;;;;;;;;105087;1249;60875;-66
2023/02/26 07:24:48;;;;;;;5.80;4.90;;;;;;;;;;105524;1250;60769;-65
2023/02/26 07:27:16;;;;;;;4.90;4.40;;;;;;;;;;105782;1249;60758;-64
2023/02/26 07:29:51;;;;;;;5.30;4.80;;;;;;;;;;105580;1250;61293;-64
2023/02/26 07:32:19;;;;;;;5.00;4.50;;;;;;;;;;105139;1259;60895;-64
2023/02/26 07:34:47;;;;;;;5.30;4.70;;;;;;;;;;105521;1250;60915;-63
2023/02/26 07:37:15;;;;;;;6.10;4.80;;;;;;;;;;105102;1249;60844;-66
2023/02/26 07:39:44;;;;;;;5.30;4.80;;;;;;;;;;105324;1250;60882;-69
2023/02/26 07:42:13;;;;;;;5.20;4.70;;;;;;;;;;104948;1253;60904;-67
2023/02/26 07:44:42;;;;;;;4.70;4.20;;;;;;;;;;105091;1253;60875;-69
2023/02/26 07:47:10;;;;;;;6.80;5.10;;;;;;;;;;105257;1250;60894;-70
2023/02/26 07:49:39;;;;;;;6.40;5.40;;;;;;;;;;104981;1253;60876;-70
2023/02/26 07:52:13;;;;;;;6.70;5.00;;;;;;;;;;104978;1253;60879;-70
2023/02/26 07:54:44;;;;;;;5.30;4.80;;;;;;;;;;105324;1253;60770;-70
2023/02/26 07:57:12;;;;;;;5.60;5.10;;;;;;;;;;105033;1250;60902;-69
2023/02/26 07:59:40;;;;;;;7.20;5.10;;;;;;;;;;105135;1250;60950;-74
2023/02/26 08:02:09;;;;;;;5.20;4.70;;;;;;;;;;105439;1253;60904;-71
2023/02/26 08:04:38;;;;;;;5.30;4.40;;;;;;;;;;104733;1254;60894;-70
2023/02/26 08:07:06;;;;;;;4.40;4.00;;;;;;;;;;105076;1269;60891;-70
2023/02/26 08:09:34;;;;;;;6.40;4.90;;;;;;;;;;105145;1253;60892;-71
2023/02/26 08:12:03;;;;;;;5.60;4.60;;;;;;;;;;105037;1253;61698;-70
2023/02/26 08:14:31;;;;;;;5.00;4.50;;;;;;;;;;105040;1254;62210;-76
2023/02/26 08:16:59;;;;;;;5.30;4.80;;;;;;;;;;105384;1250;61629;-77
2023/02/26 08:19:28;;;;;;;4.40;4.00;;;;;;;;;;105072;1254;61654;-74
2023/02/26 08:21:56;;;;;;;6.50;5.00;;;;;;;;;;108921;1249;60019;-70
2023/02/26 08:24:24;;;;;;;4.70;4.20;;;;;;;;;;106867;1250;61727;-67
2023/02/26 08:26:52;;;;;;;5.90;5.00;;;;;;;;;;104788;1250;61717;-66
2023/02/26 08:29:21;;;;;;;4.80;3.90;;;;;;;;;;105583;1251;61581;-68
2023/02/26 08:31:54;;;;;;;4.80;4.20;;;;;;;;;;105175;1253;61682;-69
2023/02/26 08:34:23;;;;;;;5.20;4.70;;;;;;;;;;105617;1250;61558;-68
2023/02/26 08:36:51;;;;;;;6.70;4.80;;;;;;;;;;105226;1251;62044;-70
2023/02/26 08:39:19;;;;;;;4.80;4.10;;;;;;;;;;105105;1266;61720;-65
2023/02/26 08:41:48;;;;;;;5.50;4.80;;;;;;;;;;105306;1250;61702;-70
2023/02/26 08:44:16;;;;;;;5.70;4.80;;;;;;;;;;105288;1251;61611;-69
2023/02/26 08:46:44;;;;;;;5.30;4.70;;;;;;;;;;106771;1250;61602;-69
2023/02/26 08:49:12;;;;;;;5.10;4.60;;;;;;;;;;108914;1249;59973;-70
2023/02/26 08:51:40;;;;;;;4.40;3.90;;;;;;;;;;108917;1250;59753;-71
2023/02/26 08:54:12;;;;;;;5.40;4.50;;;;;;;;;;106584;1250;61698;-71
2023/02/26 08:56:41;;;;;;;5.20;4.60;;;;;;;;;;105443;1251;61691;-65
2023/02/26 08:59:11;;;;;;;5.90;4.60;;;;;;;;;;105345;1250;61605;-69
2023/02/26 09:01:40;;;;;;;4.90;4.40;;;;;;;;;;105075;1265;61702;-68
2023/02/26 09:04:08;;;;;;;4.40;4.00;;;;;;;;;;105390;1248;61590;-66
2023/02/26 09:06:36;;;;;;;4.30;4.00;;;;;;;;;;105147;1250;62308;-66
2023/02/26 09:09:06;;;;;;;4.70;4.20;;;;;;;;;;105454;1250;61701;-65
2023/02/26 09:11:35;;;;;;;4.50;4.10;;;;;;;;;;105469;1251;62153;-65
2023/02/26 09:14:04;;;;;;;4.40;4.00;;;;;;;;;;105324;1253;61700;-67
2023/02/26 09:16:36;;;;;;;5.00;3.50;;;;;;;;;;105386;1248;61711;-67
2023/02/26 09:19:05;;;;;;;3.60;3.30;;;;;;;;;;105684;1248;61704;-66
2023/02/26 09:21:34;;;;;;;4.10;3.70;;;;;;;;;;105474;1252;61797;-64
2023/02/26 09:24:02;;;;;;;3.50;3.20;;;;;;;;;;105418;1250;61602;-66
2023/02/26 09:26:31;;;;;;;3.50;3.20;;;;;;;;;;105455;1253;61692;-65
2023/02/26 09:29:00;;;;;;;3.70;3.40;;;;;;;;;;105470;1250;61707;-65
2023/02/26 09:31:28;;;;;;;3.60;3.30;;;;;;;;;;105283;1247;61602;-66
2023/02/26 09:33:57;;;;;;;4.30;3.90;;;;;;;;;;105421;1247;61592;-65
2023/02/26 09:36:26;;;;;;;3.60;3.30;;;;;;;;;;105261;1253;61633;-71
2023/02/26 09:38:55;;;;;;;3.90;3.50;;;;;;;;;;105239;1257;61720;-70
2023/02/26 09:41:27;;;;;;;6.30;3.50;;;;;;;;;;105342;1253;61713;-71
2023/02/26 09:43:59;;;;;;;4.10;3.80;;;;;;;;;;105258;1252;62054;-69
2023/02/26 09:46:32;;;;;;;3.50;3.20;;;;;;;;;;105257;1249;61624;-69
2023/02/26 09:49:15;;;;;;;3.40;3.00;;;;;;;;;;105201;1247;61694;-68
2023/02/26 09:51:44;;;;;;;3.80;3.40;;;;;;;;;;105335;1271;61676;-69
2023/02/26 09:54:17;;;;;;;4.60;3.60;;;;;;;;;;105604;1252;61662;-69
2023/02/26 09:56:45;;;;;;;4.00;3.60;;;;;;;;;;105009;1254;61711;-69
2023/02/26 09:59:13;;;;;;;4.10;3.70;;;;;;;;;;104955;1264;61586;-70
2023/02/26 10:01:42;;;;;;;4.60;3.50;;;;;;;;;;105017;1248;61704;-69
2023/02/26 10:04:37;;;;;;;3.60;3.30;;;;;;;;;;105194;1253;61810;-69
2023/02/26 10:07:15;;;;;;;4.70;3.90;;;;;;;;;;105032;1256;61753;-69
2023/02/26 10:10:03;;;;;;;3.60;3.20;;;;;;;;;;105465;1253;61602;-70
2023/02/26 10:12:33;;;;;;;4.00;3.60;;;;;;;;;;105300;1253;62004;-67
2023/02/26 10:15:04;;;;;;;4.40;3.90;;;;;;;;;;105251;1252;61695;-69
2023/02/26 10:17:39;;;;;;;4.10;3.70;;;;;;;;;;105285;1261;61697;-69
2023/02/26 10:20:14;;;;;;;4.40;3.90;;;;;;;;;;105484;1252;61688;-70
2023/02/26 10:23:15;;;;;;;3.70;3.30;;;;;;;;;;105970;1247;61596;-69
2023/02/26 10:25:45;;;;;;;3.90;3.60;;;;;;;;;;106077;1259;61770;-69
2023/02/26 10:28:13;;;;;;;4.00;3.60;;;;;;;;;;105509;1250;61707;-68
2023/02/26 10:31:03;;;;;;;4.10;3.60;;;;;;;;;;105599;1248;61704;-68
2023/02/26 10:33:35;;;;;;;3.60;3.20;;;;;;;;;;105305;1248;61695;-69
2023/02/26 10:36:23;;;;;;;4.10;3.40;;;;;;;;;;105523;1250;61690;-69
2023/02/26 10:38:54;;;;;;;4.60;3.50;;;;;;;;;;105346;1252;61692;-71
2023/02/26 10:41:24;;;;;;;4.40;3.70;;;;;;;;;;105404;1248;61709;-70
2023/02/26 10:44:04;;;;;;;4.50;3.60;;;;;;;;;;105370;1253;61668;-68
2023/02/26 10:46:42;;;;;;;5.10;3.40;;;;;;;;;;104877;1259;61802;-68
2023/02/26 10:49:23;;;;;;;7.20;3.50;;;;;;;;;;104917;1254;61684;-65
2023/02/26 10:51:53;;;;;;;3.60;3.30;;;;;;;;;;105268;1253;61598;-68
2023/02/26 10:54:42;;;;;;;3.90;3.40;;;;;;;;;;104954;1255;61765;-69
2023/02/26 10:57:19;;;;;;;4.40;3.80;;;;;;;;;;105497;1253;61560;-68
2023/02/26 10:59:49;;;;;;;6.00;3.90;;;;;;;;;;105450;1253;61704;-68
2023/02/26 11:02:31;;;;;;;3.50;3.10;;;;;;;;;;105480;1258;61125;-68
2023/02/26 11:04:59;;;;;;;4.20;3.30;;;;;;;;;;105457;1247;61672;-66
2023/02/26 11:07:35;;;;;;;5.20;3.50;;;;;;;;;;105331;1264;61959;-67
2023/02/26 11:10:04;;;;;;;3.50;3.20;;;;;;;;;;105379;1260;61130;-68
2023/02/26 11:12:33;;;;;;;3.90;3.60;;;;;;;;;;105510;1247;61714;-68
2023/02/26 11:15:02;;;;;;;3.50;3.20;;;;;;;;;;105597;1259;61679;-67
2023/02/26 11:17:31;;;;;;;3.80;3.50;;;;;;;;;;105540;1248;61608;-69
2023/02/26 11:20:00;;;;;;;3.40;3.20;;;;;;;;;;104847;1248;61768;-68
2023/02/26 11:22:31;;;;;;;3.70;3.30;;;;;;;;;;108226;1247;60033;-69
2023/02/26 11:24:59;;;;;;;3.40;3.10;;;;;;;;;;108331;1250;61599;-69
2023/02/26 11:27:33;;;;;;;3.90;3.50;;;;;;;;;;106297;1252;61564;-68
2023/02/26 11:30:04;;;;;;;3.60;3.30;;;;;;;;;;105802;1248;61743;-68
2023/02/26 11:32:33;;;;;;;3.50;3.20;;;;;;;;;;105617;1250;61716;-69
2023/02/26 11:35:02;;;;;;;3.30;3.00;;;;;;;;;;105809;1253;61764;-69
2023/02/26 11:37:35;;;;;;;3.50;3.20;;;;;;;;;;105504;1253;61761;-70
2023/02/26 11:40:09;;;;;;;3.20;2.90;;;;;;;;;;105308;1247;61691;-69
2023/02/26 11:42:42;;;;;;;3.90;3.30;;;;;;;;;;105456;1247;61694;-71
2023/02/26 11:45:12;;;;;;;3.50;3.20;;;;;;;;;;105440;1247;61748;-70
2023/02/26 11:47:41;;;;;;;3.60;3.20;;;;;;;;;;105351;1247;61714;-71
2023/02/26 11:50:14;;;;;;;3.60;3.20;;;;;;;;;;105592;1253;61768;-69
2023/02/26 11:52:44;;;;;;;3.20;3.00;;;;;;;;;;105547;1252;61697;-70
2023/02/26 11:55:20;;;;;;;3.50;3.20;;;;;;;;;;105356;1253;61608;-65
2023/02/26 11:57:54;;;;;;;3.50;2.90;;;;;;;;;;105346;1248;61695;-66
2023/02/26 12:00:23;;;;;;;3.60;2.90;;;;;;;;;;105073;1269;61704;-67
2023/02/26 12:02:55;;;;;;;3.20;2.90;;;;;;;;;;105520;1248;61783;-69
2023/02/26 12:05:24;;;;;;;3.60;3.10;;;;;;;;;;105509;1247;61671;-67
2023/02/26 12:07:55;;;;;;;3.20;2.80;;;;;;;;;;105254;1248;61679;-68
2023/02/26 12:10:25;;;;;;;3.50;3.20;;;;;;;;;;105523;1252;61624;-64
2023/02/26 12:13:11;;;;;;;3.30;3.10;;;;;;;;;;105190;1256;61688;-65
2023/02/26 12:15:51;;;;;;;2.90;2.60;;;;;;;;;;105591;1253;61689;-68
2023/02/26 12:18:20;;;;;;;3.60;3.00;;;;;;;;;;105488;1250;61691;-67
2023/02/26 12:20:48;;;;;;;3.00;2.70;;;;;;;;;;105345;1250;61570;-69
2023/02/26 12:23:19;;;;;;;3.10;2.80;;;;;;;;;;105470;1264;61688;-66
2023/02/26 12:25:57;;;;;;;2.90;2.60;;;;;;;;;;105491;1264;61726;-67
2023/02/26 12:28:44;;;;;;;3.40;3.10;;;;;;;;;;105230;1248;61721;-69
2023/02/26 12:31:31;;;;;;;4.00;3.00;;;;;;;;;;105292;1253;61708;-67
2023/02/26 12:34:02;;;;;;;3.40;3.00;;;;;;;;;;105375;1248;61698;-67
2023/02/26 12:36:44;;;;;;;3.10;2.80;;;;;;;;;;105466;1248;61643;-68
2023/02/26 12:39:16;;;;;;;3.20;2.90;;;;;;;;;;105751;1251;61741;-69
2023/02/26 12:41:54;;;;;;;3.50;3.20;;;;;;;;;;105517;1252;61688;-65
2023/02/26 12:44:30;;;;;;;3.30;3.00;;;;;;;;;;105242;1253;61653;-65
2023/02/26 12:47:02;;;;;;;3.90;3.30;;;;;;;;;;105318;1257;61454;-65
2023/02/26 12:49:49;;;;;;;4.30;3.40;;;;;;;;;;106093;1248;61598;-66
2023/02/26 12:52:36;;;;;;;4.00;3.10;;;;;;;;;;109054;1247;59702;-66
2023/02/26 12:55:17;;;;;;;3.70;3.30;;;;;;;;;;105853;1252;61631;-67
2023/02/26 12:57:55;;;;;;;3.50;3.20;;;;;;;;;;105410;1248;61706;-75
2023/02/26 13:00:29;;;;;;;4.00;3.30;;;;;;;;;;105435;1253;60727;-68
2023/02/26 13:02:58;;;;;;;4.00;3.60;;;;;;;;;;105418;1253;61683;-68
2023/02/26 13:05:38;;;;;;;4.50;4.00;;;;;;;;;;105414;1253;61704;-68
2023/02/26 13:08:13;;;;;;;4.40;3.60;;;;;;;;;;105363;1247;61711;-68
2023/02/26 13:10:44;;;;;;;3.40;3.10;;;;;;;;;;105332;1248;61662;-70
2023/02/26 13:13:25;;;;;;;4.30;3.10;;;;;;;;;;105397;1252;61723;-70
2023/02/26 13:15:59;;;;;;;3.70;3.20;;;;;;;;;;105390;1253;62044;-68
2023/02/26 13:18:30;;;;;;;4.00;3.60;;;;;;;;;;105275;1252;61671;-73
2023/02/26 13:21:00;;;;;;;4.60;4.00;;;;;;;;;;105252;1252;61585;-69
2023/02/26 13:23:51;;;;;;;4.30;3.90;;;;;;;;;;105520;1253;61550;-67
2023/02/26 13:26:21;;;;;;;3.80;3.50;;;;;;;;;;105603;1247;61602;-69
2023/02/26 13:28:51;;;;;;;4.30;3.60;;;;;;;;;;105544;1252;61694;-69
2023/02/26 13:31:27;;;;;;;3.50;3.20;;;;;;;;;;105491;1253;61772;-68
2023/02/26 13:33:57;;;;;;;3.40;3.10;;;;;;;;;;105377;1248;62031;-67
2023/02/26 13:36:26;;;;;;;3.10;2.80;;;;;;;;;;105304;1254;61605;-66
2023/02/26 13:39:03;;;;;;;3.90;3.50;;;;;;;;;;105229;1247;61586;-68
2023/02/26 13:41:36;;;;;;;3.40;3.00;;;;;;;;;;105031;1253;61605;-64
2023/02/26 13:44:11;;;;;;;3.70;3.40;;;;;;;;;;105459;1254;61678;-66
2023/02/26 13:46:51;;;;;;;3.80;3.50;;;;;;;;;;105327;1253;61699;-68
2023/02/26 13:49:26;;;;;;;3.30;3.00;;;;;;;;;;105422;1248;61711;-70
2023/02/26 13:51:54;;;;;;;4.90;3.20;;;;;;;;;;105566;1248;61567;-67
2023/02/26 13:54:33;;;;;;;5.90;3.60;;;;;;;;;;105459;1252;61716;-66
2023/02/26 13:57:05;;;;;;;3.30;3.00;;;;;;;;;;105505;1253;61560;-70
2023/02/26 13:59:43;;;;;;;4.60;3.30;;;;;;;;;;105214;1253;61559;-67
2023/02/26 14:02:17;;;;;;;3.80;3.50;;;;;;;;;;105330;1248;61694;-69
2023/02/26 14:04:51;;;;;;;4.10;3.30;;;;;;;;;;105256;1249;61674;-71
2023/02/26 14:07:39;;;;;;;3.80;3.50;;;;;;;;;;105253;1260;61755;-71
2023/02/26 14:10:22;;;;;;;3.40;3.10;;;;;;;;;;105307;1252;61717;-71
2023/02/26 14:13:11;;;;;;;3.20;2.90;;;;;;;;;;105447;1254;61439;-69
2023/02/26 14:15:42;;;;;;;3.30;2.90;;;;;;;;;;105356;1251;61716;-69
2023/02/26 14:18:24;;;;;;;2.80;2.50;;;;;;;;;;105416;1257;61653;-69
2023/02/26 14:20:57;;;;;;;2.90;2.60;;;;;;;;;;105462;1251;61694;-66
2023/02/26 14:23:31;;;;;;;2.70;2.50;;;;;;;;;;107271;1247;61576;-64
2023/02/26 14:26:04;;;;;;;3.50;2.90;;;;;;;;;;109046;1247;59810;-69
2023/02/26 14:28:33;;;;;;;4.60;3.00;;;;;;;;;;105328;1253;61634;-68
2023/02/26 14:31:02;;;;;;;3.00;2.70;;;;;;;;;;105519;1253;61682;-66
2023/02/26 14:33:30;;;;;;;3.30;2.90;;;;;;;;;;105239;1252;61662;-68
2023/02/26 14:35:59;;;;;;;2.80;2.60;;;;;;;;;;105520;1253;61714;-68
2023/02/26 14:38:29;;;;;;;3.40;3.10;;;;;;;;;;105576;1263;61560;-69
2023/02/26 14:41:05;;;;;;;3.30;2.80;;;;;;;;;;105359;1253;61665;-66
2023/02/26 14:43:41;;;;;;;4.10;3.20;;;;;;;;;;105213;1250;61582;-70
2023/02/26 14:46:09;;;;;;;4.50;4.10;;;;;;;;;;105517;1248;61698;-71
2023/02/26 14:48:37;;;;;;;5.10;4.50;;;;;;;;;;105341;1263;62104;-71
2023/02/26 14:51:10;;;;;;;4.70;4.30;;;;;;;;;;105259;1252;62015;-73
2023/02/26 14:53:42;;;;;;;4.40;3.70;;;;;;;;;;106009;1250;61676;-72
2023/02/26 14:56:16;;;;;;;4.60;3.80;;;;;;;;;;108930;1247;61109;-70
2023/02/26 14:58:46;;;;;;;5.00;4.50;;;;;;;;;;109039;1248;59694;-72
2023/02/26 15:01:16;;;;;;;5.20;3.50;;;;;;;;;;109047;1247;59913;-69